Time;durP1;ratioP1;P1;durP2;ratioP2;P2;SDS_P1;SDS_P2;PMS_P1;PMS_P2;Temp;Humidity;BMP_temperature;BMP_pressure;BME280_temperature;BME280_humidity;BME280_pressure;Samples;Min_cycle;Max_cycle;Signal;HPM_P1;HPM_P2
2022/06/03 00:02:25;;;;;;;21.90;18.20;;;;;;;;;;9980833;28;20097;-72
2022/06/03 00:07:49;;;;;;;20.25;18.33;;;;;;;;;;9971345;28;20538;-72
2022/06/03 00:13:11;;;;;;;21.35;18.90;;;;;;;;;;9983832;28;20141;-72
2022/06/03 00:18:28;;;;;;;19.00;17.20;;;;;;;;;;9973430;28;20054;-72
2022/06/03 00:23:53;;;;;;;17.38;15.60;;;;;;;;;;9984914;28;20088;-72
2022/06/03 00:29:01;;;;;;;17.08;15.43;;;;;;;;;;9985158;28;20069;-72
2022/06/03 00:34:24;;;;;;;18.08;15.48;;;;;;;;;;9979989;28;20459;-73
2022/06/03 00:39:24;;;;;;;14.27;12.75;;;;;;;;;;9954858;28;20409;-73
2022/06/03 00:44:17;;;;;;;16.35;14.73;;;;;;;;;;9991141;28;20050;-73
2022/06/03 00:49:32;;;;;;;16.88;15.00;;;;;;;;;;9980338;28;20485;-73
2022/06/03 00:54:43;;;;;;;15.77;14.13;;;;;;;;;;9977263;28;20058;-73
2022/06/03 00:59:54;;;;;;;15.27;11.00;;;;;;;;;;9980770;28;20524;-73
2022/06/03 01:04:58;;;;;;;12.32;11.15;;;;;;;;;;9988251;28;20460;-73
2022/06/03 01:10:22;;;;;;;19.33;9.85;;;;;;;;;;9986039;28;20082;-72
2022/06/03 01:15:20;;;;;;;11.93;10.52;;;;;;;;;;9972086;28;20109;-73
2022/06/03 01:20:17;;;;;;;12.73;10.25;;;;;;;;;;9987909;28;20506;-72
2022/06/03 01:25:23;;;;;;;12.50;9.43;;;;;;;;;;9983833;28;20054;-72
2022/06/03 01:30:34;;;;;;;12.68;9.80;;;;;;;;;;9981460;28;20066;-72
2022/06/03 01:35:44;;;;;;;13.57;9.43;;;;;;;;;;9988103;28;20133;-73
2022/06/03 01:40:54;;;;;;;11.10;9.68;;;;;;;;;;9971404;28;20510;-72
2022/06/03 01:46:32;;;;;;;13.17;9.97;;;;;;;;;;9989142;28;20104;-72
2022/06/03 01:52:03;;;;;;;14.10;12.88;;;;;;;;;;9987025;28;20449;-72
2022/06/03 01:57:19;;;;;;;15.95;14.38;;;;;;;;;;9981742;28;20053;-72
2022/06/03 02:02:42;;;;;;;14.25;12.82;;;;;;;;;;9980383;28;20042;-72
2022/06/03 02:07:52;;;;;;;13.48;12.27;;;;;;;;;;9969606;28;20047;-72
2022/06/03 02:12:56;;;;;;;16.13;12.95;;;;;;;;;;9986089;28;20054;-72
2022/06/03 02:18:27;;;;;;;15.40;13.50;;;;;;;;;;9987971;28;20054;-72
2022/06/03 02:23:31;;;;;;;23.00;13.27;;;;;;;;;;9984071;28;20121;-73
2022/06/03 02:28:35;;;;;;;13.63;12.32;;;;;;;;;;9982296;28;20062;-74
2022/06/03 02:33:41;;;;;;;14.50;13.18;;;;;;;;;;9977049;28;20050;-75
2022/06/03 02:38:46;;;;;;;16.13;14.57;;;;;;;;;;9984637;28;20506;-74
2022/06/03 02:43:58;;;;;;;17.70;14.40;;;;;;;;;;9987562;28;20077;-74
2022/06/03 02:49:09;;;;;;;16.00;14.60;;;;;;;;;;9955642;28;20157;-73
2022/06/03 02:54:19;;;;;;;17.73;16.08;;;;;;;;;;9979971;28;20088;-73
2022/06/03 02:59:51;;;;;;;22.75;18.98;;;;;;;;;;9986821;28;20090;-72
2022/06/03 03:05:08;;;;;;;23.13;20.80;;;;;;;;;;9972908;28;20187;-71
2022/06/03 03:10:05;;;;;;;21.85;18.90;;;;;;;;;;9986834;28;20413;-71
2022/06/03 03:15:17;;;;;;;20.92;18.65;;;;;;;;;;9983539;28;20062;-71
2022/06/03 03:20:19;;;;;;;21.67;19.38;;;;;;;;;;9979673;28;20519;-71
2022/06/03 03:25:46;;;;;;;23.58;19.10;;;;;;;;;;9987606;28;20046;-71
2022/06/03 03:31:07;;;;;;;22.23;20.00;;;;;;;;;;9981038;28;20101;-72
2022/06/03 03:36:27;;;;;;;29.35;20.92;;;;;;;;;;9992335;28;20042;-72
2022/06/03 03:41:53;;;;;;;22.90;20.77;;;;;;;;;;9976650;28;20058;-71
2022/06/03 03:47:07;;;;;;;27.02;19.77;;;;;;;;;;9958336;28;20050;-71
2022/06/03 03:52:12;;;;;;;24.48;21.83;;;;;;;;;;9976050;28;20054;-72
2022/06/03 03:57:19;;;;;;;27.70;23.42;;;;;;;;;;9969426;28;20074;-72
2022/06/03 04:02:25;;;;;;;25.95;23.25;;;;;;;;;;9974093;28;20061;-71
2022/06/03 04:07:55;;;;;;;26.67;23.30;;;;;;;;;;9981145;28;20054;-71
2022/06/03 04:13:16;;;;;;;28.50;22.45;;;;;;;;;;9980822;28;20061;-71
2022/06/03 04:18:10;;;;;;;23.48;21.27;;;;;;;;;;9971507;28;20073;-73
2022/06/03 04:23:04;;;;;;;25.42;22.77;;;;;;;;;;9980589;28;20070;-71
2022/06/03 04:28:32;;;;;;;24.75;22.17;;;;;;;;;;9985303;28;20414;-71
2022/06/03 04:33:35;;;;;;;23.63;21.30;;;;;;;;;;9991752;28;20461;-71
2022/06/03 04:38:56;;;;;;;24.42;21.35;;;;;;;;;;9990800;28;20038;-73
2022/06/03 04:44:18;;;;;;;22.60;20.45;;;;;;;;;;9986126;28;20086;-71
2022/06/03 04:49:38;;;;;;;23.45;21.08;;;;;;;;;;9993639;28;20097;-71
2022/06/03 04:55:17;;;;;;;27.50;24.30;;;;;;;;;;9967547;28;20060;-72
2022/06/03 05:00:18;;;;;;;32.33;24.95;;;;;;;;;;9882343;28;20062;-70
2022/06/03 05:05:49;;;;;;;26.33;21.25;;;;;;;;;;9985329;28;20046;-70
2022/06/03 05:10:52;;;;;;;20.85;18.65;;;;;;;;;;9988977;28;20058;-70
2022/06/03 05:16:27;;;;;;;21.52;19.40;;;;;;;;;;9988457;28;20050;-70
2022/06/03 05:21:39;;;;;;;21.73;19.52;;;;;;;;;;9981952;28;20038;-70
2022/06/03 05:27:08;;;;;;;25.65;18.38;;;;;;;;;;9970677;28;20046;-70
2022/06/03 05:32:31;;;;;;;23.63;16.77;;;;;;;;;;9974573;28;20047;-71
2022/06/03 05:37:54;;;;;;;20.65;18.55;;;;;;;;;;9980306;28;20054;-70
2022/06/03 05:43:14;;;;;;;25.50;16.70;;;;;;;;;;9980044;28;20065;-70
2022/06/03 05:48:39;;;;;;;25.85;19.60;;;;;;;;;;9953069;28;20054;-69
2022/06/03 05:53:44;;;;;;;28.00;21.27;;;;;;;;;;9969945;28;20173;-70
2022/06/03 05:58:49;;;;;;;24.30;21.08;;;;;;;;;;9985779;28;20101;-72
2022/06/03 06:04:01;;;;;;;28.08;25.10;;;;;;;;;;9997914;28;20066;-69
2022/06/03 06:09:14;;;;;;;32.53;28.73;;;;;;;;;;9997521;28;20050;-70
2022/06/03 06:14:27;;;;;;;27.65;24.63;;;;;;;;;;9998609;28;20103;-68
2022/06/03 06:19:27;;;;;;;30.25;27.20;;;;;;;;;;10003623;28;20058;-68
2022/06/03 06:24:30;;;;;;;30.17;26.95;;;;;;;;;;9998892;28;20132;-69
2022/06/03 06:29:50;;;;;;;32.22;28.95;;;;;;;;;;9997523;28;20050;-69
2022/06/03 06:35:03;;;;;;;32.28;29.02;;;;;;;;;;9999860;28;20081;-69
2022/06/03 06:40:20;;;;;;;31.13;27.88;;;;;;;;;;9991971;28;20058;-69
2022/06/03 06:45:41;;;;;;;32.00;27.02;;;;;;;;;;9998077;28;20509;-67
2022/06/03 06:50:45;;;;;;;29.20;24.75;;;;;;;;;;10001546;28;20061;-67
2022/06/03 06:56:17;;;;;;;30.00;23.42;;;;;;;;;;9972933;28;20460;-66
2022/06/03 07:01:13;;;;;;;25.65;20.73;;;;;;;;;;9995211;28;20053;-68
2022/06/03 07:06:23;;;;;;;35.10;21.58;;;;;;;;;;9971370;28;20136;-67
2022/06/03 07:11:24;;;;;;;;;;;;;;;;;;9997569;28;20069;-67
2022/06/03 07:22:29;;;;;;;22.38;20.23;;;;;;;;;;10004096;28;20133;-68
2022/06/03 07:27:27;;;;;;;23.95;21.45;;;;;;;;;;9999568;28;20053;-67
2022/06/03 07:32:23;;;;;;;29.80;23.43;;;;;;;;;;10006378;28;20456;-67
2022/06/03 07:37:27;;;;;;;27.98;21.75;;;;;;;;;;9989111;28;20052;-67
2022/06/03 07:42:24;;;;;;;30.17;25.08;;;;;;;;;;9999586;28;20468;-67
2022/06/03 07:47:20;;;;;;;31.92;25.25;;;;;;;;;;10006268;28;20073;-67
2022/06/03 07:52:23;;;;;;;30.25;25.60;;;;;;;;;;10000992;28;20061;-67
2022/06/03 07:57:22;;;;;;;31.17;27.92;;;;;;;;;;10005988;28;20053;-67
2022/06/03 08:02:19;;;;;;;37.70;29.63;;;;;;;;;;10000870;28;20050;-67
2022/06/03 08:12:38;;;;;;;33.50;27.77;;;;;;;;;;9997894;28;20117;-67
2022/06/03 08:17:32;;;;;;;31.70;26.55;;;;;;;;;;9996057;28;20105;-66
2022/06/03 08:22:26;;;;;;;28.85;25.85;;;;;;;;;;9997948;28;20050;-66
2022/06/03 08:27:26;;;;;;;28.58;24.10;;;;;;;;;;10000249;28;20105;-67
2022/06/03 08:32:27;;;;;;;27.80;22.65;;;;;;;;;;9981509;28;20046;-66
2022/06/03 08:38:01;;;;;;;29.60;22.25;;;;;;;;;;10001546;28;20046;-65
2022/06/03 08:43:03;;;;;;;29.15;23.27;;;;;;;;;;10001927;28;20053;-66
2022/06/03 08:48:01;;;;;;;22.20;19.55;;;;;;;;;;9999330;28;20038;-67
2022/06/03 08:53:08;;;;;;;23.77;18.33;;;;;;;;;;10002116;28;20459;-65
2022/06/03 08:58:12;;;;;;;20.63;16.27;;;;;;;;;;9990637;28;20112;-66
2022/06/03 09:03:16;;;;;;;22.10;18.80;;;;;;;;;;9977244;28;20889;-66
2022/06/03 09:08:33;;;;;;;21.70;15.20;;;;;;;;;;9974718;28;20137;-66
2022/06/03 09:13:33;;;;;;;17.30;14.18;;;;;;;;;;9995036;28;20078;-65
2022/06/03 09:18:31;;;;;;;15.65;13.32;;;;;;;;;;9978584;28;20042;-65
2022/06/03 09:23:26;;;;;;;18.65;12.68;;;;;;;;;;9999227;28;20078;-65
2022/06/03 09:28:29;;;;;;;14.25;12.27;;;;;;;;;;9997647;28;20436;-65
2022/06/03 09:33:26;;;;;;;15.10;13.30;;;;;;;;;;9998279;28;20064;-65
2022/06/03 09:38:22;;;;;;;15.85;12.15;;;;;;;;;;10002752;28;20054;-66
2022/06/03 09:43:20;;;;;;;20.10;13.75;;;;;;;;;;9989429;28;20523;-66
2022/06/03 09:48:21;;;;;;;19.85;12.75;;;;;;;;;;9999845;28;20444;-66
2022/06/03 09:53:19;;;;;;;15.40;12.75;;;;;;;;;;9996346;28;20038;-67
2022/06/03 09:58:18;;;;;;;18.17;15.15;;;;;;;;;;9984314;28;20146;-68
2022/06/03 10:03:14;;;;;;;16.83;12.70;;;;;;;;;;9990030;28;20506;-66
2022/06/03 10:08:11;;;;;;;16.83;14.05;;;;;;;;;;10000732;28;20417;-66
2022/06/03 10:13:06;;;;;;;18.45;12.80;;;;;;;;;;10000714;28;20517;-66
2022/06/03 10:18:24;;;;;;;13.07;11.82;;;;;;;;;;9996115;28;20062;-66
2022/06/03 10:23:29;;;;;;;18.95;12.80;;;;;;;;;;9988364;28;20104;-66
2022/06/03 10:28:43;;;;;;;15.02;11.18;;;;;;;;;;9991733;28;20046;-66
2022/06/03 10:33:37;;;;;;;32.83;11.38;;;;;;;;;;10000222;28;20436;-66
2022/06/03 10:38:36;;;;;;;19.15;12.15;;;;;;;;;;10012856;28;20049;-66
2022/06/03 10:43:32;;;;;;;15.77;12.20;;;;;;;;;;10006640;28;20054;-66
2022/06/03 10:48:29;;;;;;;14.90;11.55;;;;;;;;;;10008018;28;20550;-66
2022/06/03 11:04:00;;;;;;;19.63;12.68;;;;;;;;;;10009193;28;20050;-68
2022/06/03 11:09:00;;;;;;;18.02;12.65;;;;;;;;;;9990270;28;20097;-66
2022/06/03 11:13:55;;;;;;;15.18;11.60;;;;;;;;;;9989169;28;20081;-66
2022/06/03 11:18:51;;;;;;;24.50;13.35;;;;;;;;;;9983087;28;20049;-66
2022/06/03 11:23:45;;;;;;;23.45;14.52;;;;;;;;;;9984893;28;20042;-66
2022/06/03 11:29:14;;;;;;;26.35;16.02;;;;;;;;;;9981545;28;20073;-67
2022/06/03 11:34:37;;;;;;;24.17;16.30;;;;;;;;;;9978637;28;20051;-67
2022/06/03 11:39:38;;;;;;;27.08;17.02;;;;;;;;;;9974195;28;20502;-77
2022/06/03 11:44:55;;;;;;;23.63;16.08;;;;;;;;;;9989522;28;20557;-79
2022/06/03 11:49:49;;;;;;;25.30;15.77;;;;;;;;;;9991374;28;20047;-80
2022/06/03 11:54:43;;;;;;;26.65;17.17;;;;;;;;;;9976007;28;20053;-81
2022/06/03 12:00:00;;;;;;;27.67;16.70;;;;;;;;;;9990774;28;20125;-81
2022/06/03 12:05:21;;;;;;;26.20;15.57;;;;;;;;;;9973474;28;20066;-79
2022/06/03 12:10:23;;;;;;;27.33;16.08;;;;;;;;;;9991499;28;20038;-82
2022/06/03 12:15:31;;;;;;;14.80;13.15;;;;;;;;;;9989388;28;20505;-80
2022/06/03 12:20:31;;;;;;;23.73;17.02;;;;;;;;;;9978709;28;20468;-77
2022/06/03 12:25:48;;;;;;;19.13;16.48;;;;;;;;;;9978851;28;20473;-77
2022/06/03 12:30:50;;;;;;;20.13;16.33;;;;;;;;;;9977959;28;20057;-71
2022/06/03 12:35:48;;;;;;;22.60;16.00;;;;;;;;;;9986704;28;20515;-70
2022/06/03 12:40:43;;;;;;;21.45;15.95;;;;;;;;;;9989411;28;20109;-68
2022/06/03 12:45:40;;;;;;;24.33;17.55;;;;;;;;;;9971900;28;20108;-68
2022/06/03 12:50:38;;;;;;;22.92;16.13;;;;;;;;;;9987325;28;20043;-69
2022/06/03 12:55:36;;;;;;;15.93;14.07;;;;;;;;;;9988582;28;20050;-70
2022/06/03 13:00:35;;;;;;;;;;;;;;;;;;9985714;28;20078;-70
2022/06/03 13:05:44;;;;;;;21.35;16.33;;;;;;;;;;9981625;28;20021;-71
2022/06/03 13:11:08;;;;;;;26.48;17.25;;;;;;;;;;9964083;28;20055;-71
2022/06/03 13:16:37;;;;;;;23.23;15.68;;;;;;;;;;9980829;28;20050;-71
2022/06/03 13:21:59;;;;;;;26.40;14.40;;;;;;;;;;9979903;28;20074;-72
2022/06/03 13:27:25;;;;;;;24.75;15.95;;;;;;;;;;9988089;28;20092;-71
2022/06/03 13:32:44;;;;;;;19.63;14.57;;;;;;;;;;9889485;28;20579;-71
2022/06/03 13:37:51;;;;;;;21.33;15.95;;;;;;;;;;9983303;28;20411;-71
2022/06/03 13:42:59;;;;;;;20.00;14.50;;;;;;;;;;9972862;28;20197;-71
2022/06/03 13:47:54;;;;;;;21.23;14.98;;;;;;;;;;9980360;28;20149;-71
2022/06/03 13:52:54;;;;;;;18.02;15.43;;;;;;;;;;9971616;28;20046;-71
2022/06/03 13:57:52;;;;;;;17.48;15.63;;;;;;;;;;9974892;28;20042;-72
2022/06/03 14:02:49;;;;;;;18.55;15.60;;;;;;;;;;9969124;28;20080;-70
2022/06/03 14:07:47;;;;;;;27.77;18.52;;;;;;;;;;9991422;28;20096;-69
2022/06/03 14:13:11;;;;;;;23.88;16.65;;;;;;;;;;9992266;28;20145;-70
2022/06/03 14:18:07;;;;;;;25.90;17.88;;;;;;;;;;10003495;28;20560;-69
2022/06/03 14:23:11;;;;;;;21.08;18.05;;;;;;;;;;9996091;28;20138;-69
2022/06/03 14:28:19;;;;;;;22.42;17.52;;;;;;;;;;9994509;28;20053;-69
2022/06/03 14:33:14;;;;;;;27.65;17.27;;;;;;;;;;10000816;28;20046;-69
2022/06/03 14:38:11;;;;;;;22.83;17.75;;;;;;;;;;10003904;28;20046;-69
2022/06/03 14:43:08;;;;;;;27.63;17.15;;;;;;;;;;10000373;28;20049;-72
2022/06/03 14:48:07;;;;;;;26.90;16.73;;;;;;;;;;9998645;28;20475;-74
2022/06/03 14:53:14;;;;;;;23.40;14.52;;;;;;;;;;10006823;28;20050;-75
2022/06/03 14:58:20;;;;;;;25.02;17.50;;;;;;;;;;9996376;28;20050;-74
2022/06/03 15:03:20;;;;;;;22.17;16.13;;;;;;;;;;9985740;28;20133;-79
2022/06/03 15:08:40;;;;;;;19.20;14.73;;;;;;;;;;9959838;28;20050;-73
2022/06/03 15:13:37;;;;;;;23.42;16.90;;;;;;;;;;9962308;28;20097;-72
2022/06/03 15:18:30;;;;;;;21.33;16.45;;;;;;;;;;9963610;28;20054;-73
2022/06/03 15:23:25;;;;;;;20.05;15.13;;;;;;;;;;9963515;28;20055;-73
2022/06/03 15:28:24;;;;;;;25.48;15.82;;;;;;;;;;9977026;28;20057;-73
2022/06/03 15:33:20;;;;;;;;;;;;;;;;;;9977934;28;20092;-73
2022/06/03 15:38:16;;;;;;;20.38;14.43;;;;;;;;;;9977854;28;19922;-73
2022/06/03 15:43:24;;;;;;;20.17;13.63;;;;;;;;;;9983986;28;20480;-73
2022/06/03 15:48:22;;;;;;;20.92;12.40;;;;;;;;;;9988066;28;20153;-72
2022/06/03 15:53:24;;;;;;;19.83;12.05;;;;;;;;;;9974482;28;20042;-71
2022/06/03 15:58:54;;;;;;;13.18;11.65;;;;;;;;;;9989976;28;20527;-69
2022/06/03 16:04:14;;;;;;;18.42;10.80;;;;;;;;;;9986512;28;20088;-68
2022/06/03 16:09:10;;;;;;;18.80;12.73;;;;;;;;;;9988885;28;20046;-65
2022/06/03 16:14:26;;;;;;;18.25;12.30;;;;;;;;;;9991068;28;20418;-67
2022/06/03 16:19:35;;;;;;;14.63;10.00;;;;;;;;;;9967208;28;20508;-67
2022/06/03 16:24:39;;;;;;;9.90;8.50;;;;;;;;;;9988303;28;20080;-68
2022/06/03 16:30:02;;;;;;;14.43;9.45;;;;;;;;;;9988064;28;20126;-66
2022/06/03 16:35:10;;;;;;;13.30;8.73;;;;;;;;;;9969773;28;20117;-66
2022/06/03 16:40:05;;;;;;;10.27;6.82;;;;;;;;;;9985540;28;20081;-66
2022/06/03 16:50:28;;;;;;;9.52;7.50;;;;;;;;;;9975635;28;20046;-66
2022/06/03 16:55:27;;;;;;;;;;;;;;;;;;9986820;28;20050;-66
2022/06/03 17:00:25;;;;;;;10.73;7.75;;;;;;;;;;9983156;28;19921;-67
2022/06/03 17:05:21;;;;;;;8.23;6.88;;;;;;;;;;9989633;28;20061;-66
2022/06/03 17:10:18;;;;;;;11.05;7.95;;;;;;;;;;9989541;28;20089;-66
2022/06/03 17:15:15;;;;;;;11.98;7.80;;;;;;;;;;9969915;28;20373;-67
2022/06/03 17:20:17;;;;;;;16.08;8.38;;;;;;;;;;9969131;28;20509;-67
2022/06/03 17:25:36;;;;;;;10.18;8.25;;;;;;;;;;9979356;28;20482;-65
2022/06/03 17:30:32;;;;;;;;;;;;;;;;;;9984238;28;20049;-66
2022/06/03 17:35:46;;;;;;;14.32;7.90;;;;;;;;;;9982811;28;19968;-72
2022/06/03 17:40:44;;;;;;;17.05;8.25;;;;;;;;;;9968734;28;20046;-72
2022/06/03 17:45:52;;;;;;;16.40;9.47;;;;;;;;;;9985049;28;20497;-72
2022/06/03 17:50:56;;;;;;;15.40;9.68;;;;;;;;;;9981583;28;20161;-71
2022/06/03 17:56:19;;;;;;;15.48;10.30;;;;;;;;;;9985751;28;20054;-72
2022/06/03 18:01:15;;;;;;;15.27;10.48;;;;;;;;;;9985183;28;20045;-71
2022/06/03 18:06:19;;;;;;;13.13;11.45;;;;;;;;;;9985785;28;20057;-71
2022/06/03 18:11:30;;;;;;;14.88;10.82;;;;;;;;;;9986041;28;20046;-72
2022/06/03 18:16:40;;;;;;;15.07;9.48;;;;;;;;;;9981851;28;20054;-72
2022/06/03 18:21:58;;;;;;;12.02;10.07;;;;;;;;;;9971839;28;20054;-76
2022/06/03 18:27:15;;;;;;;11.80;10.57;;;;;;;;;;9984255;28;20138;-74
2022/06/03 18:32:44;;;;;;;17.23;11.30;;;;;;;;;;9985773;28;20496;-82
2022/06/03 18:38:14;;;;;;;17.10;11.80;;;;;;;;;;10008889;28;20042;-75
2022/06/03 18:43:26;;;;;;;18.55;11.25;;;;;;;;;;9980780;28;20045;-75
2022/06/03 18:48:33;;;;;;;18.10;11.73;;;;;;;;;;10012781;28;20494;-80
2022/06/03 18:53:48;;;;;;;19.02;11.70;;;;;;;;;;10002987;28;20077;-69
2022/06/03 18:59:12;;;;;;;13.40;10.68;;;;;;;;;;9992364;28;20047;-75
2022/06/03 19:04:35;;;;;;;19.00;13.00;;;;;;;;;;9954188;28;20490;-77
2022/06/03 19:09:47;;;;;;;17.23;12.15;;;;;;;;;;9970787;28;20085;-74
2022/06/03 19:15:00;;;;;;;16.58;12.00;;;;;;;;;;9987184;28;20097;-76
2022/06/03 19:20:16;;;;;;;21.02;14.45;;;;;;;;;;9992062;28;20085;-76
2022/06/03 19:25:34;;;;;;;20.95;14.48;;;;;;;;;;9990055;28;20050;-77
2022/06/03 19:30:32;;;;;;;24.55;16.90;;;;;;;;;;9994084;28;20554;-74
2022/06/03 19:35:26;;;;;;;26.52;15.70;;;;;;;;;;10010521;28;20421;-73
2022/06/03 19:40:27;;;;;;;18.45;15.55;;;;;;;;;;10006306;28;20044;-73
2022/06/03 19:45:33;;;;;;;20.58;14.52;;;;;;;;;;10004129;28;20065;-77
2022/06/03 19:56:25;;;;;;;22.10;18.85;;;;;;;;;;9989244;28;20124;-75
2022/06/03 20:01:36;;;;;;;27.27;18.98;;;;;;;;;;9992974;28;20045;-76
2022/06/03 20:07:03;;;;;;;21.20;18.98;;;;;;;;;;9989380;28;20133;-75
2022/06/03 20:17:18;;;;;;;26.07;22.33;;;;;;;;;;9995156;28;20128;-74
2022/06/03 20:22:20;;;;;;;24.75;20.17;;;;;;;;;;9993548;28;20046;-77
2022/06/03 20:27:40;;;;;;;24.27;21.55;;;;;;;;;;9993252;28;20072;-73
2022/06/03 20:32:36;;;;;;;;;;;;;;;;;;9981127;28;20038;-71
2022/06/03 20:37:58;;;;;;;25.58;21.98;;;;;;;;;;9990576;28;19975;-77
2022/06/03 20:43:13;;;;;;;26.67;24.10;;;;;;;;;;9994761;28;20081;-78
2022/06/03 20:48:25;;;;;;;23.67;21.45;;;;;;;;;;9993191;28;20070;-74
2022/06/03 20:53:30;;;;;;;26.92;21.95;;;;;;;;;;9992414;28;20089;-77
2022/06/03 20:58:40;;;;;;;27.33;22.08;;;;;;;;;;9986843;28;20050;-69
2022/06/03 21:14:13;;;;;;;29.33;22.03;;;;;;;;;;9986803;28;20077;-73
2022/06/03 21:19:11;;;;;;;30.50;23.90;;;;;;;;;;9987529;28;20121;-73
2022/06/03 21:24:16;;;;;;;27.77;23.10;;;;;;;;;;9993072;28;20416;-74
2022/06/03 21:29:17;;;;;;;28.13;23.38;;;;;;;;;;9983573;28;20133;-76
2022/06/03 21:34:45;;;;;;;;;;;;;;;;;;9988500;28;20129;-77
2022/06/03 21:39:59;;;;;;;27.13;24.20;;;;;;;;;;9995575;28;19921;-71
2022/06/03 21:45:07;;;;;;;33.67;26.45;;;;;;;;;;9990077;28;20521;-70
2022/06/03 21:50:27;;;;;;;27.92;24.08;;;;;;;;;;9985575;28;20129;-69
2022/06/03 21:55:55;;;;;;;30.67;27.45;;;;;;;;;;9991548;28;20046;-68
2022/06/03 22:00:53;;;;;;;31.05;27.75;;;;;;;;;;9982694;28;20520;-72
2022/06/03 22:05:48;;;;;;;31.05;27.55;;;;;;;;;;9972136;28;20081;-68
2022/06/03 22:10:45;;;;;;;29.83;26.83;;;;;;;;;;9966114;28;20414;-68
2022/06/03 22:15:40;;;;;;;29.83;26.60;;;;;;;;;;9965411;28;20054;-69
2022/06/03 22:20:36;;;;;;;38.65;29.13;;;;;;;;;;9968782;28;20043;-69
2022/06/03 22:25:57;;;;;;;32.58;28.48;;;;;;;;;;9960829;28;20080;-70
2022/06/03 22:30:55;;;;;;;34.55;30.08;;;;;;;;;;9973447;28;20049;-69
2022/06/03 22:35:55;;;;;;;35.28;30.45;;;;;;;;;;9985818;28;20398;-69
2022/06/03 22:40:57;;;;;;;36.03;32.30;;;;;;;;;;9984817;28;20108;-69
2022/06/03 22:45:51;;;;;;;34.83;31.40;;;;;;;;;;9980511;28;20514;-68
2022/06/03 22:50:45;;;;;;;39.67;31.65;;;;;;;;;;9980998;28;20524;-70
2022/06/03 22:55:41;;;;;;;34.85;30.55;;;;;;;;;;9982945;28;20058;-69
2022/06/03 23:00:37;;;;;;;37.88;31.95;;;;;;;;;;9966710;28;20047;-69
2022/06/03 23:05:32;;;;;;;45.90;32.45;;;;;;;;;;9975083;28;20053;-69
2022/06/03 23:10:28;;;;;;;38.45;34.53;;;;;;;;;;9985329;28;20058;-70
2022/06/03 23:15:24;;;;;;;49.53;36.83;;;;;;;;;;9986599;28;20145;-70
2022/06/03 23:20:44;;;;;;;38.47;34.45;;;;;;;;;;9978023;28;20047;-70
2022/06/03 23:25:38;;;;;;;;;;;;;;;;;;9973992;28;20074;-69
2022/06/03 23:30:34;;;;;;;39.45;31.75;;;;;;;;;;9977545;28;19922;-69
2022/06/03 23:35:28;;;;;;;35.25;31.52;;;;;;;;;;9985351;28;20086;-69
2022/06/03 23:40:23;;;;;;;39.50;32.15;;;;;;;;;;9982002;28;20062;-69
2022/06/03 23:45:27;;;;;;;38.40;32.42;;;;;;;;;;9993478;28;20050;-69
2022/06/03 23:50:21;;;;;;;36.25;30.15;;;;;;;;;;9982985;28;20050;-69
2022/06/03 23:55:16;;;;;;;35.42;31.67;;;;;;;;;;9977025;28;20135;-69
